Time;durP1;ratioP1;P1;durP2;ratioP2;P2;SDS_P1;SDS_P2;PMS_P1;PMS_P2;Temp;Humidity;BMP_temperature;BMP_pressure;BME280_temperature;BME280_humidity;BME280_pressure;Samples;Min_cycle;Max_cycle;Signal;HPM_P1;HPM_P2
2023/09/10 00:00:40;;;;;;;30.25;27.05;;;;;;;17.54;100.00;101553.72;5005479;28;20023;-75
2023/09/10 00:03:06;;;;;;;28.45;25.48;;;;;;;17.50;100.00;101555.22;5004134;28;20054;-76
2023/09/10 00:08:14;;;;;;;31.50;28.37;;;;;;;17.43;100.00;101548.00;5253001;23;20077;-76
2023/09/10 00:10:51;;;;;;;30.15;27.10;;;;;;;17.45;100.00;101550.47;5023711;28;21058;-75
2023/09/10 00:13:19;;;;;;;29.92;27.02;;;;;;;17.42;100.00;101556.34;5025008;28;20037;-76
2023/09/10 00:15:45;;;;;;;36.10;32.22;;;;;;;17.42;100.00;101556.34;5014815;28;20026;-76
2023/09/10 00:18:11;;;;;;;31.20;28.10;;;;;;;17.43;100.00;101552.59;5008154;28;20397;-76
2023/09/10 00:20:37;;;;;;;32.22;29.02;;;;;;;17.42;100.00;101557.22;5017040;28;20080;-75
2023/09/10 00:23:03;;;;;;;33.42;30.02;;;;;;;17.42;100.00;101559.94;5014752;28;20033;-76
2023/09/10 00:25:28;;;;;;;35.63;31.17;;;;;;;17.42;100.00;101554.50;5015604;28;20030;-76
2023/09/10 00:27:54;;;;;;;33.97;30.58;;;;;;;17.42;100.00;101553.63;5002703;28;20096;-76
2023/09/10 00:30:19;;;;;;;35.42;31.83;;;;;;;17.47;100.00;101555.72;5011536;28;20052;-76
2023/09/10 00:32:45;;;;;;;35.85;31.80;;;;;;;17.47;100.00;101551.09;5015482;28;20025;-75
2023/09/10 00:35:19;;;;;;;33.97;30.58;;;;;;;17.40;100.00;101547.59;5011563;28;20033;-76
2023/09/10 00:37:44;;;;;;;37.30;33.53;;;;;;;17.40;100.00;101548.44;5013032;28;20033;-76
2023/09/10 00:40:10;;;;;;;36.42;32.88;;;;;;;17.34;100.00;101543.88;5011970;28;20060;-76
2023/09/10 00:42:37;;;;;;;39.83;35.72;;;;;;;17.29;100.00;101546.47;5007969;28;20045;-75
2023/09/10 00:45:06;;;;;;;37.90;34.00;;;;;;;17.23;100.00;101537.28;5010017;28;20022;-76
2023/09/10 00:47:31;;;;;;;38.13;34.35;;;;;;;17.19;100.00;101540.69;5025844;28;20076;-75
2023/09/10 00:49:56;;;;;;;45.45;40.65;;;;;;;17.23;100.00;101541.91;5018467;28;20033;-76
2023/09/10 00:52:22;;;;;;;44.08;39.67;;;;;;;17.25;100.00;101539.81;5003204;28;20108;-76
2023/09/10 00:54:48;;;;;;;44.65;40.22;;;;;;;17.27;100.00;101537.69;4993084;28;20321;-75
2023/09/10 00:57:13;;;;;;;41.25;37.05;;;;;;;17.24;100.00;101540.84;5013148;28;20033;-76
2023/09/10 00:59:38;;;;;;;43.15;38.88;;;;;;;17.22;100.00;101540.25;5012316;28;20478;-75
2023/09/10 01:02:04;;;;;;;40.00;36.10;;;;;;;17.21;100.00;101544.03;5012481;28;20144;-75
2023/09/10 01:04:30;;;;;;;44.10;39.58;;;;;;;17.22;100.00;101532.09;4979023;28;20485;-75
2023/09/10 01:06:56;;;;;;;43.03;38.72;;;;;;;17.23;100.00;101539.19;5010818;28;20042;-76
2023/09/10 01:09:21;;;;;;;43.85;39.45;;;;;;;17.20;100.00;101542.34;5006394;28;20033;-75
2023/09/10 01:12:12;;;;;;;40.45;36.45;;;;;;;17.16;100.00;101535.69;5013923;28;20079;-75
2023/09/10 01:14:45;;;;;;;41.05;36.65;;;;;;;17.09;100.00;101541.19;5017998;28;20061;-76
2023/09/10 01:17:16;;;;;;;42.20;37.88;;;;;;;17.03;100.00;101547.56;5013159;28;20048;-75
2023/09/10 01:19:51;;;;;;;42.38;37.97;;;;;;;16.95;100.00;101545.91;5011908;28;20027;-76
2023/09/10 01:22:24;;;;;;;39.85;35.70;;;;;;;16.89;100.00;101546.81;5029559;28;20470;-76
2023/09/10 01:24:51;;;;;;;38.03;34.08;;;;;;;16.84;100.00;101544.75;4996925;28;20038;-76
2023/09/10 01:27:16;;;;;;;37.40;33.65;;;;;;;16.81;100.00;101540.56;5029422;28;20082;-76
2023/09/10 01:29:42;;;;;;;42.53;38.13;;;;;;;16.77;100.00;101552.94;5209189;23;20092;-75
2023/09/10 01:32:14;;;;;;;39.92;36.05;;;;;;;16.78;100.00;101549.16;4974472;28;20035;-75
2023/09/10 01:34:43;;;;;;;46.58;41.72;;;;;;;16.77;100.00;101561.09;4974338;28;20035;-75
2023/09/10 01:37:35;;;;;;;46.50;41.78;;;;;;;16.72;100.00;101563.66;4938492;28;20026;-75
2023/09/10 01:40:00;;;;;;;45.80;40.97;;;;;;;16.66;100.00;101549.06;4963893;28;20039;-75
2023/09/10 01:42:26;;;;;;;39.92;35.92;;;;;;;16.64;100.00;101555.75;4958024;28;20041;-75
2023/09/10 01:44:52;;;;;;;39.65;35.65;;;;;;;16.59;100.00;101552.91;4973400;28;20057;-75
2023/09/10 01:47:17;;;;;;;39.85;35.75;;;;;;;16.57;100.00;101557.72;4972468;28;20046;-75
2023/09/10 01:49:42;;;;;;;36.33;32.78;;;;;;;16.54;100.00;101558.16;4975933;28;20027;-75
2023/09/10 01:52:08;;;;;;;35.65;32.15;;;;;;;16.50;100.00;101555.03;4942736;28;20027;-76
2023/09/10 01:54:33;;;;;;;34.38;30.90;;;;;;;16.48;100.00;101560.69;4975696;28;20088;-76
2023/09/10 01:56:59;;;;;;;37.65;33.65;;;;;;;16.48;100.00;101549.81;4977453;28;20497;-75
2023/09/10 01:59:24;;;;;;;35.85;32.10;;;;;;;16.42;100.00;101558.84;4975854;28;20042;-76
2023/09/10 02:01:56;;;;;;;34.65;31.13;;;;;;;16.39;100.00;101559.28;4978160;28;20031;-75
2023/09/10 02:04:21;;;;;;;34.55;30.92;;;;;;;16.35;100.00;101558.06;4980955;28;20035;-75
2023/09/10 02:06:48;;;;;;;33.90;30.42;;;;;;;16.33;100.00;101560.16;4977583;28;20073;-75
2023/09/10 02:09:13;;;;;;;32.10;28.80;;;;;;;16.32;100.00;101559.34;5241816;23;20069;-75
2023/09/10 02:11:38;;;;;;;34.53;31.05;;;;;;;16.32;100.00;101559.34;4986484;28;20030;-75
2023/09/10 02:14:09;;;;;;;35.63;31.98;;;;;;;16.33;100.00;101554.72;4993556;28;20023;-75
2023/09/10 02:16:35;;;;;;;34.67;31.17;;;;;;;16.31;100.00;101562.25;4994347;28;20048;-75
2023/09/10 02:19:01;;;;;;;36.70;33.00;;;;;;;16.31;100.00;101562.25;5001032;28;20022;-75
2023/09/10 02:21:30;;;;;;;36.38;32.15;;;;;;;16.31;100.00;101567.69;4976226;28;20030;-75
2023/09/10 02:24:02;;;;;;;36.35;32.47;;;;;;;16.30;100.00;101574.19;4994017;28;20023;-75
2023/09/10 02:26:27;;;;;;;37.67;33.88;;;;;;;16.27;100.00;101569.16;4988816;28;20104;-75
2023/09/10 02:28:53;;;;;;;37.17;33.38;;;;;;;16.27;100.00;101577.31;4995830;28;20477;-75
2023/09/10 02:31:20;;;;;;;39.95;35.78;;;;;;;16.28;100.00;101573.56;4998706;28;20041;-75
2023/09/10 02:33:45;;;;;;;38.22;34.45;;;;;;;16.27;100.00;101577.31;4988245;28;20057;-77
2023/09/10 02:36:10;;;;;;;37.03;33.30;;;;;;;16.26;100.00;101581.94;4992300;28;20026;-74
2023/09/10 02:38:39;;;;;;;39.22;34.72;;;;;;;16.27;100.00;101574.59;4991748;28;20037;-74
2023/09/10 02:41:14;;;;;;;39.72;35.63;;;;;;;16.28;100.00;101568.13;4992271;28;20019;-74
2023/09/10 02:43:39;;;;;;;38.78;34.78;;;;;;;16.25;100.00;101563.13;4992830;28;20033;-77
2023/09/10 02:46:07;;;;;;;38.83;34.70;;;;;;;16.24;100.00;101577.78;4982743;28;20030;-77
2023/09/10 02:48:32;;;;;;;41.78;37.42;;;;;;;16.21;100.00;101569.00;4990647;28;20146;-77
2023/09/10 02:50:58;;;;;;;41.35;37.15;;;;;;;16.20;100.00;101572.78;4995079;28;20089;-74
2023/09/10 02:53:23;;;;;;;40.17;35.92;;;;;;;16.17;100.00;101561.50;5002736;28;20038;-75
2023/09/10 02:56:01;;;;;;;38.35;34.38;;;;;;;16.15;100.00;101572.59;4991775;28;20607;-77
2023/09/10 02:58:26;;;;;;;39.03;35.03;;;;;;;16.11;100.00;101565.91;4992632;28;20120;-77
2023/09/10 03:00:51;;;;;;;39.38;35.20;;;;;;;16.10;100.00;101566.13;4970637;28;20030;-77
2023/09/10 03:03:19;;;;;;;35.55;31.88;;;;;;;16.08;100.00;101563.63;4989665;28;20066;-75
2023/09/10 03:05:45;;;;;;;36.67;33.00;;;;;;;16.09;100.00;101564.47;4990007;28;20547;-76
2023/09/10 03:08:10;;;;;;;37.63;33.80;;;;;;;16.07;100.00;101564.66;4991499;28;20034;-77
2023/09/10 03:10:36;;;;;;;37.50;33.60;;;;;;;16.07;100.00;101564.66;4991023;28;20038;-77
2023/09/10 03:13:01;;;;;;;38.97;34.97;;;;;;;16.09;100.00;101570.72;4992887;28;20043;-77
2023/09/10 03:15:26;;;;;;;38.67;34.58;;;;;;;16.17;100.00;101575.91;4991547;28;20084;-77
2023/09/10 03:17:52;;;;;;;41.08;36.78;;;;;;;16.18;100.00;101574.88;4992263;28;20022;-76
2023/09/10 03:20:17;;;;;;;39.17;35.15;;;;;;;16.16;100.00;101576.13;4983404;28;20023;-77
2023/09/10 03:22:42;;;;;;;42.22;37.83;;;;;;;16.14;100.00;101578.25;4991874;28;20022;-76
2023/09/10 03:25:09;;;;;;;40.88;36.25;;;;;;;16.14;100.00;101575.53;4991511;28;20061;-77
2023/09/10 03:27:36;;;;;;;38.70;34.78;;;;;;;16.11;100.00;101568.63;5005317;28;20118;-76
2023/09/10 03:30:02;;;;;;;39.08;35.08;;;;;;;16.05;100.00;101569.50;4993471;28;20043;-76
2023/09/10 03:32:27;;;;;;;39.65;35.63;;;;;;;16.01;100.00;101562.84;4991719;28;20089;-76
2023/09/10 03:34:52;;;;;;;39.70;35.38;;;;;;;15.99;100.00;101567.66;4994148;28;20034;-74
2023/09/10 03:37:18;;;;;;;38.67;34.58;;;;;;;15.99;100.00;101559.50;4990396;28;20030;-74
2023/09/10 03:39:43;;;;;;;39.58;35.50;;;;;;;15.97;100.00;101556.16;4991124;28;20023;-74
2023/09/10 03:42:09;;;;;;;39.85;35.75;;;;;;;15.95;100.00;101553.69;4993977;28;20558;-74
2023/09/10 03:44:34;;;;;;;40.30;36.08;;;;;;;15.95;100.00;101552.81;4994815;28;20096;-74
2023/09/10 03:47:00;;;;;;;39.42;35.28;;;;;;;15.91;100.00;101555.97;4994634;28;20100;-74
2023/09/10 03:49:25;;;;;;;40.70;36.58;;;;;;;15.88;100.00;101558.28;4999200;28;20030;-74
2023/09/10 03:51:51;;;;;;;38.80;34.88;;;;;;;15.85;100.00;101553.25;4995327;28;20125;-74
2023/09/10 03:54:17;;;;;;;39.25;35.30;;;;;;;15.83;100.00;101566.19;4992967;28;20467;-74
2023/09/10 03:56:43;;;;;;;39.47;35.58;;;;;;;15.80;100.00;101556.63;4993230;28;20042;-74
2023/09/10 03:59:09;;;;;;;39.35;35.40;;;;;;;15.79;100.00;101559.56;4991537;28;20018;-74
2023/09/10 04:01:34;;;;;;;41.40;37.30;;;;;;;15.76;100.00;101566.22;4992516;28;20113;-75
2023/09/10 04:04:00;;;;;;;42.58;38.10;;;;;;;15.76;100.00;101555.38;4992751;28;20030;-74
2023/09/10 04:06:25;;;;;;;40.05;35.90;;;;;;;15.76;100.00;101549.94;4973939;28;20117;-74
2023/09/10 04:08:51;;;;;;;41.70;37.45;;;;;;;15.76;100.00;101555.38;4990614;28;20441;-74
2023/09/10 04:11:16;;;;;;;39.53;35.38;;;;;;;15.75;100.00;101551.00;4988844;28;20084;-74
2023/09/10 04:13:42;;;;;;;41.05;36.80;;;;;;;15.75;100.00;101556.41;4992182;28;20018;-75
2023/09/10 04:16:07;;;;;;;41.00;36.67;;;;;;;15.75;100.00;101549.13;4983391;28;20050;-74
2023/09/10 04:18:34;;;;;;;42.55;37.90;;;;;;;15.74;100.00;101552.88;4993455;28;20030;-74
2023/09/10 04:21:03;;;;;;;44.22;39.47;;;;;;;15.76;100.00;101555.38;4989235;28;20050;-74
2023/09/10 04:23:28;;;;;;;47.10;42.10;;;;;;;15.80;100.00;101553.06;4974151;28;20114;-74
2023/09/10 04:25:54;;;;;;;44.50;39.85;;;;;;;15.79;100.00;101554.94;4992813;28;20030;-74
2023/09/10 04:28:19;;;;;;;47.17;42.05;;;;;;;15.80;100.00;101555.78;4983377;28;20552;-75
2023/09/10 04:30:44;;;;;;;47.78;42.00;;;;;;;15.79;100.00;101560.38;4990100;28;20034;-74
2023/09/10 04:33:11;;;;;;;44.13;39.38;;;;;;;15.78;100.00;101556.00;4989961;28;20076;-74
2023/09/10 04:35:37;;;;;;;41.92;37.63;;;;;;;15.75;100.00;101562.69;4985361;28;20033;-74
2023/09/10 04:38:02;;;;;;;46.47;41.60;;;;;;;15.73;100.00;101559.38;4988950;28;20034;-75
2023/09/10 04:40:28;;;;;;;45.42;39.45;;;;;;;15.70;100.00;101558.97;4990843;28;20026;-74
2023/09/10 04:42:53;;;;;;;45.28;40.60;;;;;;;15.69;100.00;101565.44;4991421;28;20045;-74
2023/09/10 04:45:18;;;;;;;43.42;38.92;;;;;;;15.68;100.00;101563.78;4984447;28;20081;-76
2023/09/10 04:47:44;;;;;;;42.38;37.78;;;;;;;15.70;100.00;101561.69;4991519;28;20084;-74
2023/09/10 04:50:12;;;;;;;47.88;42.72;;;;;;;15.72;100.00;101564.97;4989487;28;20029;-74
2023/09/10 04:52:38;;;;;;;46.53;41.70;;;;;;;15.73;100.00;101566.66;4989618;28;20038;-77
2023/09/10 04:55:03;;;;;;;46.72;41.83;;;;;;;15.71;100.00;101568.75;4994234;28;20026;-74
2023/09/10 04:57:29;;;;;;;45.97;41.22;;;;;;;15.70;100.00;101561.69;4994394;28;20391;-75
2023/09/10 04:59:54;;;;;;;45.92;41.17;;;;;;;15.69;100.00;101560.00;4993324;28;20035;-75
2023/09/10 05:02:20;;;;;;;44.40;39.70;;;;;;;15.69;100.00;101565.44;4993151;28;20037;-74
2023/09/10 05:04:45;;;;;;;48.95;43.50;;;;;;;15.68;100.00;101564.59;4994226;28;20031;-75
2023/09/10 05:07:10;;;;;;;46.95;41.85;;;;;;;15.71;100.00;101568.75;4989697;28;20026;-75
2023/09/10 05:09:36;;;;;;;48.17;43.08;;;;;;;15.73;100.00;101566.66;4995446;28;20050;-76
2023/09/10 05:12:01;;;;;;;48.78;43.67;;;;;;;15.76;100.00;101566.22;4965719;28;20030;-75
2023/09/10 05:14:27;;;;;;;48.15;43.05;;;;;;;15.79;100.00;101565.81;4994594;28;20030;-76
2023/09/10 05:16:52;;;;;;;47.20;42.20;;;;;;;15.82;100.00;101568.09;4995562;28;20041;-76
2023/09/10 05:19:17;;;;;;;46.10;41.28;;;;;;;15.85;100.00;101565.00;4998204;28;20034;-76
2023/09/10 05:21:43;;;;;;;45.47;40.67;;;;;;;15.90;100.00;101565.16;4995155;28;20456;-75
2023/09/10 05:24:11;;;;;;;43.35;38.75;;;;;;;15.98;100.00;101571.41;4997408;28;20499;-78
2023/09/10 05:26:39;;;;;;;43.25;38.70;;;;;;;16.08;100.00;101577.19;4994705;28;20426;-76
2023/09/10 05:29:04;;;;;;;41.92;37.53;;;;;;;16.17;100.00;101573.19;4993566;28;20053;-76
2023/09/10 05:31:30;;;;;;;41.90;37.28;;;;;;;16.27;100.00;101580.88;4994872;28;20866;-76
2023/09/10 05:33:55;;;;;;;43.58;38.90;;;;;;;16.37;100.00;101578.50;4995100;28;20490;-76
2023/09/10 05:36:21;;;;;;;42.38;38.00;;;;;;;16.46;100.00;101578.28;4993454;28;20438;-76
2023/09/10 05:38:46;;;;;;;40.92;36.65;;;;;;;16.55;100.00;101579.66;4993425;28;20032;-76
2023/09/10 05:41:11;;;;;;;40.75;36.53;;;;;;;16.66;100.00;101580.84;4994002;28;20030;-76
2023/09/10 05:43:37;;;;;;;39.92;35.65;;;;;;;16.74;100.00;101586.03;4993121;28;20031;-76
2023/09/10 05:46:05;;;;;;;40.90;36.78;;;;;;;16.85;100.00;101589.09;4992921;28;20034;-76
2023/09/10 05:48:31;;;;;;;42.28;37.97;;;;;;;17.01;100.00;101590.47;4991534;28;20137;-77
2023/09/10 05:50:56;;;;;;;39.70;35.70;;;;;;;17.13;100.00;101594.94;4993355;28;20063;-76
2023/09/10 05:53:22;;;;;;;40.00;35.85;;;;;;;17.22;100.00;101590.03;4988074;28;20026;-76
2023/09/10 05:55:47;;;;;;;38.25;34.45;;;;;;;17.39;100.00;101594.91;4985250;28;20054;-76
2023/09/10 05:58:14;;;;;;;38.88;34.92;;;;;;;17.55;100.00;101598.94;4989977;28;20022;-76
2023/09/10 06:00:39;;;;;;;39.30;35.30;;;;;;;17.86;100.00;101599.84;4991834;28;20393;-76
2023/09/10 06:03:07;;;;;;;36.80;32.97;;;;;;;18.26;100.00;101593.94;5008197;28;20025;-76
2023/09/10 06:05:32;;;;;;;33.22;29.83;;;;;;;18.73;100.00;101582.38;4995157;28;20018;-75
2023/09/10 06:07:57;;;;;;;36.53;32.83;;;;;;;19.10;96.75;101595.00;4991868;28;20084;-76
2023/09/10 06:10:23;;;;;;;35.28;31.60;;;;;;;19.56;94.09;101588.97;4985435;28;20108;-76
2023/09/10 06:12:48;;;;;;;36.33;32.83;;;;;;;20.05;91.00;101597.66;4991895;28;20026;-75
2023/09/10 06:15:14;;;;;;;37.63;33.75;;;;;;;20.55;86.87;101596.16;4990488;28;20030;-75
2023/09/10 06:17:42;;;;;;;35.95;32.25;;;;;;;21.10;83.37;101598.44;4990429;28;20066;-75
2023/09/10 06:20:08;;;;;;;35.17;31.88;;;;;;;21.59;80.46;101606.03;4969847;28;20102;-76
2023/09/10 06:22:33;;;;;;;34.95;31.35;;;;;;;21.83;79.32;101609.38;4989457;28;20027;-76
2023/09/10 06:24:59;;;;;;;34.92;31.60;;;;;;;22.18;77.21;101612.78;4989574;28;20034;-76
2023/09/10 06:27:24;;;;;;;33.70;30.40;;;;;;;22.72;74.55;101606.53;4992717;28;20018;-76
2023/09/10 06:29:50;;;;;;;33.35;30.17;;;;;;;23.08;72.56;101600.50;4998160;28;20108;-76
2023/09/10 06:32:15;;;;;;;30.92;27.98;;;;;;;23.80;70.10;101619.38;5010873;28;20022;-76
2023/09/10 06:34:40;;;;;;;31.20;28.20;;;;;;;23.91;69.71;101613.66;4990651;28;20041;-77
2023/09/10 06:37:06;;;;;;;30.25;27.30;;;;;;;23.74;68.71;101619.34;4991983;28;20042;-76
2023/09/10 06:39:38;;;;;;;30.67;27.38;;;;;;;24.19;68.13;101618.97;4959840;28;20076;-76
2023/09/10 06:42:07;;;;;;;28.90;26.08;;;;;;;24.77;66.01;101618.84;5004380;28;20022;-77
2023/09/10 06:44:32;;;;;;;27.50;24.70;;;;;;;25.20;63.88;101620.47;4995478;28;20023;-77
2023/09/10 06:47:00;;;;;;;28.88;25.88;;;;;;;25.16;64.04;101624.88;4993423;28;20093;-77
2023/09/10 06:49:26;;;;;;;28.00;25.40;;;;;;;25.30;63.52;101622.41;4993466;28;20352;-76
2023/09/10 06:51:52;;;;;;;26.15;23.65;;;;;;;25.90;62.10;101627.22;4991851;28;20177;-76
2023/09/10 06:54:24;;;;;;;26.35;23.83;;;;;;;26.04;61.74;101625.50;4990276;28;20622;-76
2023/09/10 06:56:49;;;;;;;26.40;23.95;;;;;;;26.47;59.75;101623.09;4991480;28;20057;-76
2023/09/10 06:59:17;;;;;;;23.65;21.40;;;;;;;27.43;56.62;101631.97;4990000;28;20478;-79
2023/09/10 07:01:42;;;;;;;22.55;20.13;;;;;;;27.56;55.73;101616.63;4988245;28;20130;-75
2023/09/10 07:04:22;;;;;;;25.20;22.63;;;;;;;26.72;58.89;101629.53;4990334;28;20030;-76
2023/09/10 07:06:49;;;;;;;17.70;16.05;;;;;;;27.47;57.08;101623.94;4989897;28;20030;-76
2023/09/10 07:09:16;;;;;;;24.35;22.00;;;;;;;27.23;57.99;101614.47;4992081;28;20129;-75
2023/09/10 07:11:51;;;;;;;24.77;21.80;;;;;;;27.64;55.84;101623.44;4994783;28;20022;-76
2023/09/10 07:14:17;;;;;;;23.02;20.83;;;;;;;27.86;55.17;101622.94;4992025;28;20037;-76
2023/09/10 07:16:43;;;;;;;22.25;19.92;;;;;;;28.79;53.27;101624.38;4991158;28;20846;-76
2023/09/10 07:19:09;;;;;;;22.92;20.50;;;;;;;28.36;53.57;101621.72;4993168;28;20022;-74
2023/09/10 07:21:34;;;;;;;17.70;16.17;;;;;;;29.27;51.34;101622.47;4990697;28;21221;-76
2023/09/10 07:24:00;;;;;;;21.55;19.58;;;;;;;29.45;51.56;101624.38;4986317;28;20537;-77
2023/09/10 07:26:25;;;;;;;20.67;18.85;;;;;;;29.11;50.93;101622.75;4990820;28;20026;-77
2023/09/10 07:28:53;;;;;;;17.27;15.77;;;;;;;29.53;50.77;101624.75;4999724;28;20030;-76
2023/09/10 07:31:19;;;;;;;20.13;18.33;;;;;;;29.25;50.91;101625.53;4992620;28;20030;-77
2023/09/10 07:33:44;;;;;;;21.58;19.42;;;;;;;29.47;50.72;101624.03;4990453;28;20033;-77
2023/09/10 07:36:09;;;;;;;20.95;19.13;;;;;;;29.61;50.17;101633.19;4989508;28;20026;-77
2023/09/10 07:38:35;;;;;;;19.88;18.05;;;;;;;30.20;48.69;101637.25;4990067;28;20049;-77
2023/09/10 07:41:00;;;;;;;16.73;15.23;;;;;;;30.96;45.81;101642.16;4989172;28;20480;-76
2023/09/10 07:43:26;;;;;;;19.00;17.30;;;;;;;31.32;44.96;101636.81;4969654;28;20459;-76
2023/09/10 07:45:52;;;;;;;19.65;17.92;;;;;;;31.11;45.42;101642.88;4990302;28;20121;-77
2023/09/10 07:48:17;;;;;;;19.58;17.55;;;;;;;30.64;46.52;101635.72;4990112;28;20069;-77
2023/09/10 07:50:45;;;;;;;21.13;19.20;;;;;;;30.64;46.40;101630.16;4989324;28;20026;-77
2023/09/10 07:53:10;;;;;;;19.90;17.95;;;;;;;31.04;46.52;101639.75;4972317;28;20530;-77
2023/09/10 07:55:35;;;;;;;13.57;12.15;;;;;;;32.02;44.87;101642.63;4989284;28;20037;-77
2023/09/10 07:58:02;;;;;;;16.30;14.77;;;;;;;32.85;42.04;101634.47;4989932;28;20029;-77
2023/09/10 08:00:29;;;;;;;17.20;15.65;;;;;;;34.13;39.43;101637.41;4991551;28;20068;-76
2023/09/10 08:02:55;;;;;;;14.70;13.45;;;;;;;34.08;39.16;101645.13;4982210;28;20081;-76
2023/09/10 08:05:20;;;;;;;16.02;14.52;;;;;;;34.19;39.18;101645.56;4989495;28;20098;-77
2023/09/10 08:07:45;;;;;;;21.05;19.08;;;;;;;33.29;40.65;101654.72;4989345;28;20569;-76
2023/09/10 08:10:11;;;;;;;16.45;15.07;;;;;;;33.04;41.56;101643.28;4989180;28;20502;-76
2023/09/10 08:12:36;;;;;;;20.55;18.65;;;;;;;32.83;42.11;101639.59;4989622;28;20034;-76
2023/09/10 08:15:05;;;;;;;21.27;19.33;;;;;;;32.93;41.55;101653.16;4988389;28;20022;-76
2023/09/10 08:17:31;;;;;;;18.25;16.58;;;;;;;33.31;40.80;101646.81;4986053;28;20207;-76
2023/09/10 08:19:56;;;;;;;21.90;19.95;;;;;;;33.47;40.86;101651.88;4987880;28;20046;-76
2023/09/10 08:22:30;;;;;;;16.70;15.02;;;;;;;34.59;38.62;101654.31;4989434;28;20022;-76
2023/09/10 08:24:56;;;;;;;22.13;19.90;;;;;;;33.15;41.38;101642.94;4987532;28;20049;-77
2023/09/10 08:27:21;;;;;;;20.40;18.67;;;;;;;33.26;41.91;101644.22;4990215;28;20375;-76
2023/09/10 08:29:49;;;;;;;22.13;19.80;;;;;;;32.72;42.45;101636.28;4991080;28;20092;-76
2023/09/10 08:32:15;;;;;;;20.80;18.80;;;;;;;34.06;40.35;101641.91;4993365;28;20459;-76
2023/09/10 08:34:46;;;;;;;20.42;18.30;;;;;;;34.21;39.34;101643.25;4993445;28;20034;-75
2023/09/10 08:37:17;;;;;;;20.58;18.38;;;;;;;34.19;39.40;101639.97;4993313;28;20026;-76
2023/09/10 08:39:42;;;;;;;18.55;16.48;;;;;;;35.45;36.84;101644.53;4992124;28;20033;-75
2023/09/10 08:42:19;;;;;;;18.58;16.77;;;;;;;34.87;37.59;101642.50;4992939;28;20027;-76
2023/09/10 08:44:45;;;;;;;19.63;17.70;;;;;;;34.37;38.89;101643.47;4976058;28;20501;-76
2023/09/10 08:47:12;;;;;;;15.02;13.52;;;;;;;35.65;36.83;101641.97;4972707;28;20030;-76
2023/09/10 08:49:41;;;;;;;17.85;16.33;;;;;;;35.96;35.64;101640.56;4976536;28;20034;-76
2023/09/10 08:52:07;;;;;;;13.07;11.52;;;;;;;35.37;36.18;101642.63;4995905;28;20030;-75
2023/09/10 08:54:32;;;;;;;18.25;16.45;;;;;;;36.11;34.75;101637.03;4976411;28;20094;-76
2023/09/10 08:56:57;;;;;;;13.57;12.27;;;;;;;36.38;34.97;101633.78;4960568;28;20038;-76
2023/09/10 08:59:23;;;;;;;13.23;12.02;;;;;;;36.55;35.00;101639.13;5001732;28;20134;-76
2023/09/10 09:01:48;;;;;;;12.77;11.68;;;;;;;36.82;33.77;101638.63;4969630;28;20557;-76
2023/09/10 09:04:14;;;;;;;11.15;10.05;;;;;;;36.59;34.64;101636.41;4995789;28;20042;-76
2023/09/10 09:06:40;;;;;;;9.60;8.57;;;;;;;37.36;32.71;101625.19;4999267;28;20071;-75
2023/09/10 09:09:06;;;;;;;12.75;11.65;;;;;;;37.43;32.33;101631.00;4997544;28;20497;-76
2023/09/10 09:11:35;;;;;;;11.05;9.93;;;;;;;36.38;33.93;101634.59;4952997;28;20045;-76
2023/09/10 09:14:00;;;;;;;13.40;12.02;;;;;;;36.34;33.47;101628.06;4974331;28;20054;-76
2023/09/10 09:16:27;;;;;;;11.00;9.80;;;;;;;36.99;32.76;101629.91;4976026;28;20479;-76
2023/09/10 09:18:52;;;;;;;13.35;11.95;;;;;;;36.39;33.96;101627.81;4986075;28;20045;-76
2023/09/10 09:21:19;;;;;;;10.55;9.65;;;;;;;37.31;32.44;101624.28;4988117;28;20030;-76
2023/09/10 09:24:01;;;;;;;13.52;10.10;;;;;;;37.80;30.78;101622.22;4975965;28;20063;-76
2023/09/10 09:26:30;;;;;;;9.45;8.55;;;;;;;38.04;30.69;101626.81;4988623;28;20031;-75
2023/09/10 09:28:58;;;;;;;9.90;8.25;;;;;;;38.11;31.39;101616.91;4999684;28;20030;-76
2023/09/10 09:31:24;;;;;;;10.48;9.52;;;;;;;38.49;30.70;101624.53;4990701;28;20032;-75
2023/09/10 09:33:52;;;;;;;12.05;10.95;;;;;;;37.29;32.83;101606.19;4992204;28;20034;-76
2023/09/10 09:36:19;;;;;;;11.70;10.55;;;;;;;38.17;31.10;101613.44;4991404;28;20029;-75
2023/09/10 09:38:46;;;;;;;11.05;9.35;;;;;;;37.87;31.57;101605.53;4975076;28;20045;-76
2023/09/10 09:41:13;;;;;;;13.07;9.82;;;;;;;36.88;32.82;101606.34;4990530;28;20117;-76
2023/09/10 09:43:45;;;;;;;9.60;8.00;;;;;;;38.30;30.09;101605.66;4990313;28;20265;-75
2023/09/10 09:46:10;;;;;;;9.32;8.27;;;;;;;38.48;29.89;101599.59;4992070;28;20042;-76
2023/09/10 09:48:36;;;;;;;11.10;7.95;;;;;;;38.05;30.18;101600.31;4990949;28;20023;-76
2023/09/10 09:51:02;;;;;;;11.90;9.20;;;;;;;37.65;31.46;101597.81;4974798;28;20030;-76
2023/09/10 09:53:29;;;;;;;10.18;8.93;;;;;;;37.48;32.05;101599.84;4990358;28;20030;-75
2023/09/10 09:56:01;;;;;;;10.75;9.65;;;;;;;38.12;31.11;101605.31;4990549;28;20034;-75
2023/09/10 09:58:29;;;;;;;15.68;10.85;;;;;;;37.60;31.53;101596.91;4987807;28;20478;-76
2023/09/10 10:00:54;;;;;;;8.48;6.88;;;;;;;38.01;31.12;101595.81;4973281;28;20026;-76
2023/09/10 10:03:20;;;;;;;10.68;8.43;;;;;;;37.49;31.33;101595.84;4989688;28;20076;-76
2023/09/10 10:05:49;;;;;;;13.20;9.35;;;;;;;36.69;32.50;101590.19;4990887;28;20060;-76
2023/09/10 10:08:15;;;;;;;10.82;8.88;;;;;;;37.12;31.93;101591.34;4990449;28;20038;-75
2023/09/10 10:10:50;;;;;;;11.35;6.60;;;;;;;36.99;31.95;101587.81;4985280;28;20042;-75
2023/09/10 10:13:19;;;;;;;9.95;7.35;;;;;;;37.88;30.56;101581.88;4986079;28;20027;-75
2023/09/10 10:15:50;;;;;;;14.25;8.50;;;;;;;36.85;31.55;101585.41;4989577;28;20026;-78
2023/09/10 10:18:16;;;;;;;9.82;7.40;;;;;;;37.26;31.47;101574.00;4988988;28;20615;-78
2023/09/10 10:20:49;;;;;;;12.68;7.05;;;;;;;38.08;30.16;101576.28;4991182;28;20121;-76
2023/09/10 10:23:17;;;;;;;12.98;7.10;;;;;;;37.51;30.13;101582.25;4984221;28;20022;-76
2023/09/10 10:25:43;;;;;;;13.07;6.72;;;;;;;37.48;31.29;101577.38;4990049;28;20379;-76
2023/09/10 10:28:12;;;;;;;11.98;7.65;;;;;;;36.55;31.67;101576.59;4987436;28;20026;-76
2023/09/10 10:30:57;;;;;;;12.95;6.88;;;;;;;36.84;31.53;101574.56;4992065;28;20034;-76
2023/09/10 10:33:24;;;;;;;9.65;6.25;;;;;;;37.92;30.34;101581.97;4957810;28;20061;-76
2023/09/10 10:36:01;;;;;;;10.35;6.07;;;;;;;38.25;29.86;101585.47;4969572;28;20030;-78
2023/09/10 10:38:32;;;;;;;11.85;6.10;;;;;;;38.62;28.78;101579.38;5112442;23;20348;-76
2023/09/10 10:40:57;;;;;;;13.50;7.93;;;;;;;38.46;29.06;101571.84;4989792;28;20022;-76
2023/09/10 10:43:26;;;;;;;10.77;6.10;;;;;;;38.73;29.00;101571.13;4991635;28;20033;-76
2023/09/10 10:45:53;;;;;;;11.55;5.95;;;;;;;38.54;29.62;101574.78;4992558;28;20088;-76
2023/09/10 10:48:23;;;;;;;11.90;6.72;;;;;;;37.51;31.06;101567.41;5012139;28;20116;-75
2023/09/10 10:50:48;;;;;;;12.80;6.75;;;;;;;37.84;30.03;101571.75;4993944;28;20049;-75
2023/09/10 10:53:20;;;;;;;13.77;7.10;;;;;;;37.68;29.63;101563.38;5014362;28;20022;-75
2023/09/10 10:55:47;;;;;;;10.40;6.28;;;;;;;36.59;31.72;101565.47;5007991;28;20114;-75
2023/09/10 10:58:13;;;;;;;14.98;7.53;;;;;;;37.78;30.48;101562.78;4977612;28;20574;-75
2023/09/10 11:00:38;;;;;;;12.93;7.53;;;;;;;36.08;32.69;101553.66;5005459;28;20030;-76
2023/09/10 11:03:14;;;;;;;13.40;6.82;;;;;;;37.06;30.49;101556.28;4991167;28;20037;-76
2023/09/10 11:05:52;;;;;;;12.75;6.85;;;;;;;37.24;31.36;101555.91;4979174;28;20037;-76
2023/09/10 11:08:48;;;;;;;11.52;6.40;;;;;;;36.94;31.86;101548.78;5008945;28;20033;-76